createdAt,value
2022-08-30T00:01:04.729Z,43.31
2022-08-30T00:03:47.029Z,43.32
2022-08-30T00:06:18.543Z,43.53
2022-08-30T00:08:50.356Z,45.80
2022-08-30T00:11:23.242Z,46.53
2022-08-30T00:13:54.667Z,47.18
2022-08-30T00:16:25.375Z,47.78
2022-08-30T00:18:54.991Z,47.02
2022-08-30T00:21:25.480Z,46.92
2022-08-30T00:23:55.107Z,47.37
2022-08-30T00:26:24.435Z,47.54
2022-08-30T00:28:53.797Z,48.33
2022-08-30T00:31:23.200Z,48.50
2022-08-30T00:33:52.510Z,48.84
2022-08-30T00:36:22.450Z,49.27
2022-08-30T00:38:51.742Z,50.10
2022-08-30T00:41:21.202Z,50.51
2022-08-30T00:43:50.496Z,50.68
2022-08-30T00:46:20.068Z,50.50
2022-08-30T00:48:52.083Z,51.28
2022-08-30T00:51:22.722Z,51.42
2022-08-30T00:53:56.321Z,51.10
2022-08-30T00:56:27.003Z,51.70
2022-08-30T00:58:59.178Z,52.22
2022-08-30T01:01:30.591Z,51.98
2022-08-30T01:04:03.529Z,52.22
2022-08-30T01:06:35.438Z,52.68
2022-08-30T01:09:06.124Z,53.20
2022-08-30T01:11:36.976Z,52.92
2022-08-30T01:14:07.211Z,53.40
2022-08-30T01:16:39.346Z,53.79
2022-08-30T01:19:12.376Z,54.91
2022-08-30T01:21:54.523Z,55.11
2022-08-30T01:24:23.887Z,54.91
2022-08-30T01:26:53.352Z,55.33
2022-08-30T01:29:25.113Z,55.18
2022-08-30T01:31:54.725Z,55.59
2022-08-30T01:34:24.256Z,56.05
2022-08-30T01:36:53.798Z,55.90
2022-08-30T01:39:24.648Z,55.69
2022-08-30T01:41:54.140Z,55.90
2022-08-30T01:44:23.493Z,56.54
2022-08-30T01:46:55.125Z,56.35
2022-08-30T01:49:27.674Z,57.11
2022-08-30T01:52:00.525Z,57.23
2022-08-30T01:54:33.282Z,56.95
2022-08-30T01:57:12.396Z,56.72
2022-08-30T01:59:48.857Z,57.54
2022-08-30T02:02:32.657Z,57.49
2022-08-30T02:05:02.077Z,56.91
2022-08-30T02:07:31.799Z,57.21
2022-08-30T02:10:01.410Z,56.91
2022-08-30T02:12:31.732Z,56.87
2022-08-30T02:15:01.941Z,56.79
2022-08-30T02:17:32.576Z,57.25
2022-08-30T02:20:01.940Z,57.02
2022-08-30T02:22:33.759Z,56.87
2022-08-30T02:25:03.291Z,56.65
2022-08-30T02:27:32.491Z,56.76
2022-08-30T02:30:01.793Z,56.81
2022-08-30T02:32:31.194Z,56.83
2022-08-30T02:35:00.569Z,56.72
2022-08-30T02:37:29.887Z,57.05
2022-08-30T02:39:59.209Z,57.06
2022-08-30T02:42:28.496Z,57.00
2022-08-30T02:44:58.200Z,56.80
2022-08-30T02:47:27.644Z,56.67
2022-08-30T02:49:57.093Z,56.91
2022-08-30T02:52:27.793Z,56.66
2022-08-30T02:54:57.319Z,57.01
2022-08-30T02:57:26.920Z,57.10
2022-08-30T02:59:56.279Z,57.27
2022-08-30T03:02:27.164Z,57.84
2022-08-30T03:04:56.837Z,57.64
2022-08-30T03:07:26.155Z,57.80
2022-08-30T03:09:55.618Z,57.42
2022-08-30T03:12:28.832Z,57.91
2022-08-30T03:14:58.721Z,57.71
2022-08-30T03:17:28.192Z,57.93
2022-08-30T03:19:57.539Z,57.94
2022-08-30T03:22:27.215Z,58.09
2022-08-30T03:25:00.937Z,58.07
2022-08-30T03:27:31.360Z,58.34
2022-08-30T03:30:00.779Z,58.72
2022-08-30T03:32:30.102Z,58.23
2022-08-30T03:35:02.154Z,58.43
2022-08-30T03:37:31.435Z,58.53
2022-08-30T03:40:04.766Z,58.31
2022-08-30T03:42:36.487Z,58.30
2022-08-30T03:45:08.199Z,58.36
2022-08-30T03:47:37.581Z,58.46
2022-08-30T03:50:10.943Z,58.70
2022-08-30T03:52:41.314Z,58.72
2022-08-30T03:55:10.961Z,58.48
2022-08-30T03:57:43.655Z,58.30
2022-08-30T04:00:14.690Z,58.64
2022-08-30T04:02:44.442Z,58.36
2022-08-30T04:05:14.846Z,58.09
2022-08-30T04:07:49.256Z,58.45
2022-08-30T04:10:18.817Z,58.02
2022-08-30T04:12:49.907Z,58.54
2022-08-30T04:15:22.516Z,58.50
2022-08-30T04:17:51.999Z,58.55
2022-08-30T04:20:22.532Z,58.64
2022-08-30T04:22:52.812Z,58.49
2022-08-30T04:25:22.205Z,58.49
2022-08-30T04:27:59.465Z,58.58
2022-08-30T04:30:28.875Z,58.80
2022-08-30T04:32:58.917Z,58.54
2022-08-30T04:35:33.611Z,58.47
2022-08-30T04:38:03.682Z,58.93
2022-08-30T04:40:34.504Z,58.56
2022-08-30T04:43:05.646Z,58.91
2022-08-30T04:45:35.073Z,58.97
2022-08-30T04:48:04.720Z,59.09
2022-08-30T04:50:34.391Z,58.93
2022-08-30T04:53:03.681Z,58.69
2022-08-30T04:55:33.087Z,59.04
2022-08-30T04:58:03.514Z,58.98
2022-08-30T05:00:38.706Z,59.04
2022-08-30T05:03:08.150Z,59.08
2022-08-30T05:05:46.721Z,59.05
2022-08-30T05:08:23.245Z,59.03
2022-08-30T05:10:54.514Z,59.12
2022-08-30T05:13:26.277Z,59.00
2022-08-30T05:16:06.497Z,59.13
2022-08-30T05:18:39.615Z,59.29
2022-08-30T05:21:38.179Z,59.41
2022-08-30T05:24:08.192Z,59.23
2022-08-30T05:26:41.954Z,59.19
2022-08-30T05:29:11.353Z,59.49
2022-08-30T05:31:42.241Z,59.22
2022-08-30T05:34:12.047Z,59.14
2022-08-30T05:36:44.571Z,59.14
2022-08-30T05:39:13.891Z,59.49
2022-08-30T05:41:44.455Z,59.27
2022-08-30T05:44:21.907Z,59.15
2022-08-30T05:46:54.064Z,59.58
2022-08-30T05:49:23.538Z,59.45
2022-08-30T05:51:52.789Z,59.57
2022-08-30T05:54:22.091Z,59.76
2022-08-30T05:56:51.432Z,59.68
2022-08-30T05:59:23.050Z,59.56
2022-08-30T06:01:55.511Z,59.74
2022-08-30T06:04:24.986Z,59.80
2022-08-30T06:06:56.037Z,60.25
2022-08-30T06:09:25.474Z,59.98
2022-08-30T06:11:56.530Z,60.33
2022-08-30T06:14:26.491Z,60.21
2022-08-30T06:16:56.025Z,60.28
2022-08-30T06:19:25.404Z,60.03
2022-08-30T06:21:54.877Z,60.36
2022-08-30T06:24:35.716Z,60.12
2022-08-30T06:27:13.868Z,60.36
2022-08-30T06:29:43.093Z,60.39
2022-08-30T06:32:12.373Z,60.35
2022-08-30T06:34:45.205Z,60.50
2022-08-30T06:37:29.140Z,60.38
2022-08-30T06:40:00.590Z,60.58
2022-08-30T06:42:33.340Z,60.60
2022-08-30T06:45:10.423Z,60.67
2022-08-30T06:47:42.073Z,60.51
2022-08-30T06:50:17.375Z,60.46
2022-08-30T06:52:47.556Z,60.58
2022-08-30T06:55:23.373Z,60.54
2022-08-30T06:57:54.271Z,60.60
2022-08-30T07:00:26.994Z,60.54
2022-08-30T07:02:59.579Z,60.77
2022-08-30T07:05:31.443Z,60.91
2022-08-30T07:08:00.716Z,60.87
2022-08-30T07:10:30.540Z,61.09
2022-08-30T07:13:01.508Z,60.97
2022-08-30T07:15:31.011Z,61.18
2022-08-30T07:18:25.434Z,60.98
2022-08-30T07:20:55.265Z,61.11
2022-08-30T07:23:24.988Z,61.31
2022-08-30T07:25:54.397Z,61.47
2022-08-30T07:28:23.928Z,61.47
2022-08-30T07:30:56.055Z,61.50
2022-08-30T07:33:25.483Z,61.42
2022-08-30T07:35:54.833Z,61.29
2022-08-30T07:38:24.384Z,61.44
2022-08-30T07:40:56.002Z,61.47
2022-08-30T07:43:26.548Z,61.60
2022-08-30T07:45:59.342Z,61.36
2022-08-30T07:48:28.680Z,61.24
2022-08-30T07:51:04.568Z,61.28
2022-08-30T07:53:37.154Z,61.21
2022-08-30T07:56:06.615Z,61.31
2022-08-30T07:58:36.407Z,61.32
2022-08-30T08:01:07.590Z,61.38
2022-08-30T08:03:36.830Z,61.22
2022-08-30T08:06:08.229Z,61.31
2022-08-30T08:08:40.244Z,61.42
2022-08-30T08:11:18.986Z,61.31
2022-08-30T08:13:53.982Z,61.19
2022-08-30T08:16:27.490Z,61.42
2022-08-30T08:18:57.580Z,61.16
2022-08-30T08:21:27.781Z,61.08
2022-08-30T08:23:57.903Z,61.19
2022-08-30T08:26:28.916Z,61.50
2022-08-30T08:28:59.577Z,61.26
2022-08-30T08:31:33.387Z,61.31
2022-08-30T08:34:05.998Z,61.14
2022-08-30T08:36:36.942Z,61.32
2022-08-30T08:39:08.573Z,61.32
2022-08-30T08:42:21.766Z,61.32
2022-08-30T08:44:54.802Z,61.22
2022-08-30T08:47:32.400Z,61.34
2022-08-30T08:50:04.663Z,61.05
2022-08-30T08:53:07.883Z,61.22
2022-08-30T08:55:38.760Z,61.34
2022-08-30T08:58:10.886Z,61.12
2022-08-30T09:00:41.485Z,61.11
2022-08-30T09:03:12.859Z,61.29
2022-08-30T09:05:42.971Z,61.02
2022-08-30T09:08:16.431Z,61.31
2022-08-30T09:11:03.456Z,61.09
2022-08-30T09:13:32.798Z,61.02
2022-08-30T09:16:02.615Z,60.91
2022-08-30T09:18:52.698Z,61.16
2022-08-30T09:21:26.889Z,60.73
2022-08-30T09:24:01.830Z,60.89
2022-08-30T09:26:38.916Z,61.32
2022-08-30T09:29:10.544Z,61.04
2022-08-30T09:32:16.158Z,60.95
2022-08-30T09:34:45.995Z,61.26
2022-08-30T09:37:31.340Z,60.76
2022-08-30T09:40:00.983Z,60.59
2022-08-30T09:42:32.463Z,60.78
2022-08-30T09:45:14.322Z,60.87
2022-08-30T09:47:45.538Z,60.85
2022-08-30T09:50:24.476Z,61.00
2022-08-30T09:53:19.895Z,61.02
2022-08-30T09:56:06.212Z,60.88
2022-08-30T09:58:59.450Z,60.78
2022-08-30T10:01:55.602Z,60.81
2022-08-30T10:04:52.099Z,60.99
2022-08-30T10:07:28.913Z,60.71
2022-08-30T10:10:12.879Z,60.75
2022-08-30T10:12:47.904Z,60.86
2022-08-30T10:15:51.154Z,60.70
2022-08-30T10:18:47.637Z,60.64
2022-08-30T10:21:40.020Z,60.82
2022-08-30T10:24:33.370Z,60.79
2022-08-30T10:27:13.119Z,60.63
2022-08-30T10:30:15.513Z,60.46
2022-08-30T10:32:56.854Z,60.52
2022-08-30T10:35:58.306Z,60.67
2022-08-30T10:38:36.672Z,60.84
2022-08-30T10:41:15.682Z,60.77
2022-08-30T10:44:17.503Z,60.67
2022-08-30T10:47:23.396Z,60.86
2022-08-30T10:49:58.005Z,60.83
2022-08-30T10:52:33.516Z,61.10
2022-08-30T10:55:20.012Z,60.83
2022-08-30T10:57:49.677Z,60.70
2022-08-30T11:00:45.268Z,60.80
2022-08-30T11:03:29.987Z,60.68
2022-08-30T11:06:29.413Z,60.71
2022-08-30T11:09:18.028Z,60.75
2022-08-30T11:11:56.606Z,60.80
2022-08-30T11:14:28.211Z,60.85
2022-08-30T11:16:59.101Z,60.21
2022-08-30T11:19:40.816Z,60.57
2022-08-30T11:22:28.164Z,60.67
2022-08-30T11:25:10.175Z,60.56
2022-08-30T11:27:52.247Z,60.35
2022-08-30T11:30:28.140Z,60.71
2022-08-30T11:33:08.405Z,60.60
2022-08-30T11:35:53.907Z,60.86
2022-08-30T11:38:32.065Z,60.86
2022-08-30T11:41:15.427Z,60.56
2022-08-30T11:43:44.898Z,60.53
2022-08-30T11:46:20.451Z,60.38
2022-08-30T11:49:08.164Z,60.30
2022-08-30T11:55:01.328Z,60.12
2022-08-30T11:57:33.567Z,60.46
2022-08-30T12:00:34.225Z,60.33
2022-08-30T12:03:09.874Z,60.31
2022-08-30T12:05:42.421Z,60.23
2022-08-30T12:08:13.744Z,60.38
2022-08-30T12:10:52.085Z,60.06
2022-08-30T12:13:39.777Z,60.18
2022-08-30T12:16:13.093Z,60.25
2022-08-30T12:18:47.982Z,60.18
2022-08-30T12:21:21.451Z,60.30
2022-08-30T12:23:54.942Z,60.35
2022-08-30T12:26:28.329Z,60.07
2022-08-30T12:29:25.345Z,60.14
2022-08-30T12:32:20.469Z,59.81
2022-08-30T12:35:02.401Z,59.81
2022-08-30T12:37:38.534Z,60.10
2022-08-30T12:40:21.921Z,60.18
2022-08-30T12:43:05.549Z,59.98
2022-08-30T12:45:50.981Z,60.02
2022-08-30T12:48:21.918Z,56.25
2022-08-30T12:51:01.881Z,53.60
2022-08-30T12:53:41.947Z,54.45
2022-08-30T12:56:49.567Z,54.46
2022-08-30T12:59:56.762Z,53.06
2022-08-30T13:02:46.639Z,53.18
2022-08-30T13:05:44.350Z,52.35
2022-08-30T13:08:23.106Z,51.41
2022-08-30T13:10:58.162Z,50.54
2022-08-30T13:13:34.564Z,50.42
2022-08-30T13:16:39.509Z,49.74
